Time;durP1;ratioP1;P1;durP2;ratioP2;P2;SDS_P1;SDS_P2;PMS_P1;PMS_P2;Temp;Humidity;BMP_temperature;BMP_pressure;BME280_temperature;BME280_humidity;BME280_pressure;Samples;Min_cycle;Max_cycle;Signal;HPM_P1;HPM_P2
2022/03/08 00:01:10;;;;;;;26.20;16.70;;;0.60;99.90;;;;;;5013420;28;20210;-60
2022/03/08 00:03:37;;;;;;;22.33;16.85;;;0.60;99.90;;;;;;5013815;28;20207;-60
2022/03/08 00:06:04;;;;;;;27.98;15.73;;;0.60;99.90;;;;;;5014220;28;20218;-61
2022/03/08 00:08:32;;;;;;;27.27;18.20;;;0.60;99.90;;;;;;5013255;28;20229;-61
2022/03/08 00:11:02;;;;;;;23.63;16.08;;;0.60;99.90;;;;;;5013273;28;20203;-60
2022/03/08 00:13:30;;;;;;;32.33;19.30;;;0.50;99.90;;;;;;5013416;28;20191;-60
2022/03/08 00:15:57;;;;;;;26.23;17.55;;;0.50;99.90;;;;;;5013191;28;20582;-60
2022/03/08 00:18:24;;;;;;;20.08;15.82;;;0.50;99.90;;;;;;5013370;28;20233;-60
2022/03/08 00:20:51;;;;;;;23.63;17.00;;;0.50;99.90;;;;;;5013944;28;20203;-60
2022/03/08 00:23:18;;;;;;;25.88;16.60;;;0.50;99.90;;;;;;5013661;28;20206;-60
2022/03/08 00:25:45;;;;;;;22.88;16.95;;;0.40;99.90;;;;;;5016937;28;20257;-60
2022/03/08 00:28:14;;;;;;;22.73;16.83;;;0.40;99.90;;;;;;5017487;28;20238;-60
2022/03/08 00:30:41;;;;;;;27.67;17.40;;;0.40;99.90;;;;;;5017159;28;20202;-61
2022/03/08 00:33:08;;;;;;;25.15;17.52;;;0.40;99.90;;;;;;5017019;28;20210;-60
2022/03/08 00:35:35;;;;;;;26.70;18.40;;;0.40;99.90;;;;;;5017168;28;20222;-61
2022/03/08 00:38:02;;;;;;;25.08;17.67;;;0.40;99.90;;;;;;5017141;28;20593;-61
2022/03/08 00:40:29;;;;;;;27.73;17.20;;;0.40;99.90;;;;;;5017274;28;20214;-60
2022/03/08 00:42:56;;;;;;;23.20;17.83;;;0.40;99.90;;;;;;5017257;28;20203;-60
2022/03/08 00:45:25;;;;;;;23.95;17.95;;;0.40;99.90;;;;;;5017238;28;20210;-60
2022/03/08 00:47:52;;;;;;;20.63;16.27;;;0.30;99.90;;;;;;5016883;28;20310;-60
2022/03/08 00:50:23;;;;;;;24.25;18.30;;;0.30;99.90;;;;;;5016903;28;20207;-60
2022/03/08 00:52:51;;;;;;;26.02;18.38;;;0.30;99.90;;;;;;5016833;28;20202;-60
2022/03/08 00:55:19;;;;;;;25.25;17.80;;;0.30;99.90;;;;;;5016985;28;20581;-60
2022/03/08 00:57:47;;;;;;;28.70;17.58;;;0.20;99.90;;;;;;5016963;28;20223;-61
2022/03/08 01:00:16;;;;;;;24.17;16.92;;;0.20;99.90;;;;;;5016983;28;20207;-60
2022/03/08 01:02:45;;;;;;;23.05;16.90;;;0.20;99.90;;;;;;5016971;28;20223;-60
2022/03/08 01:05:12;;;;;;;26.35;17.67;;;0.20;99.90;;;;;;5017241;28;20199;-60
2022/03/08 01:07:39;;;;;;;23.58;16.00;;;0.10;99.90;;;;;;5018105;28;20207;-61
2022/03/08 01:10:10;;;;;;;26.77;17.90;;;0.10;99.90;;;;;;5017954;28;20215;-59
2022/03/08 01:12:37;;;;;;;26.33;18.73;;;0.10;99.90;;;;;;5016681;28;20672;-60
2022/03/08 01:15:05;;;;;;;23.38;17.15;;;0.10;99.90;;;;;;5016648;28;20699;-60
2022/03/08 01:17:32;;;;;;;25.00;17.23;;;0.10;99.90;;;;;;5016700;28;20210;-60
2022/03/08 01:20:01;;;;;;;28.60;16.90;;;0.10;99.90;;;;;;5016913;28;20206;-60
2022/03/08 01:22:28;;;;;;;25.08;16.88;;;0.10;99.90;;;;;;5016791;28;20203;-60
2022/03/08 01:24:55;;;;;;;26.77;18.42;;;0.00;99.90;;;;;;5016792;28;20206;-60
2022/03/08 01:27:22;;;;;;;22.88;16.73;;;0.00;99.90;;;;;;5017357;28;20211;-60
2022/03/08 01:29:49;;;;;;;26.77;19.48;;;0.00;99.90;;;;;;5016963;28;20203;-60
2022/03/08 01:32:17;;;;;;;23.10;16.85;;;0.00;99.90;;;;;;5016606;28;20226;-60
2022/03/08 01:34:44;;;;;;;26.48;17.48;;;0.00;99.90;;;;;;5016174;28;20254;-59
2022/03/08 01:37:13;;;;;;;27.35;17.75;;;0.00;99.90;;;;;;5015520;28;20213;-60
2022/03/08 01:39:40;;;;;;;26.00;18.95;;;-0.10;99.90;;;;;;5016224;28;20222;-60
2022/03/08 01:42:12;;;;;;;27.63;17.83;;;-0.10;99.90;;;;;;5016308;28;20207;-60
2022/03/08 01:44:41;;;;;;;27.75;17.77;;;-0.10;99.90;;;;;;5016403;28;20195;-59
2022/03/08 01:47:09;;;;;;;30.58;17.85;;;-0.10;99.90;;;;;;5016172;28;20737;-60
2022/03/08 01:49:36;;;;;;;24.85;17.40;;;-0.10;99.90;;;;;;5016080;28;20223;-60
2022/03/08 01:52:03;;;;;;;26.08;17.40;;;-0.10;99.90;;;;;;5016243;28;20199;-59
2022/03/08 01:54:32;;;;;;;26.25;16.60;;;-0.10;99.90;;;;;;5016555;28;20226;-60
2022/03/08 01:56:59;;;;;;;29.90;17.17;;;-0.20;99.90;;;;;;5016355;28;20207;-60
2022/03/08 01:59:26;;;;;;;24.10;16.33;;;-0.20;99.90;;;;;;5016311;28;20223;-60
2022/03/08 02:01:53;;;;;;;26.10;18.00;;;-0.20;99.90;;;;;;5015912;28;20207;-60
2022/03/08 02:04:21;;;;;;;26.00;17.15;;;-0.20;99.90;;;;;;5016143;28;20210;-60
2022/03/08 02:06:48;;;;;;;28.75;17.63;;;-0.20;99.90;;;;;;5015819;28;20234;-60
2022/03/08 02:09:16;;;;;;;27.55;18.33;;;-0.20;99.90;;;;;;5015586;28;20227;-60
2022/03/08 02:11:45;;;;;;;24.83;17.58;;;-0.20;99.90;;;;;;5016002;28;20207;-60
2022/03/08 02:14:12;;;;;;;25.27;17.35;;;-0.20;99.90;;;;;;5015584;28;20206;-60
2022/03/08 02:16:39;;;;;;;25.20;16.60;;;-0.20;99.90;;;;;;5015787;28;20210;-60
2022/03/08 02:19:06;;;;;;;21.88;15.38;;;-0.30;99.90;;;;;;5016335;28;20230;-60
2022/03/08 02:21:38;;;;;;;22.45;15.45;;;-0.30;99.90;;;;;;5016197;28;20203;-59
2022/03/08 02:24:06;;;;;;;27.27;18.08;;;-0.30;99.90;;;;;;5015975;28;20226;-59
2022/03/08 02:26:33;;;;;;;27.75;18.20;;;-0.30;99.90;;;;;;5015660;28;20202;-59
2022/03/08 02:29:03;;;;;;;25.10;17.30;;;-0.30;99.90;;;;;;5015722;28;20226;-59
2022/03/08 02:31:30;;;;;;;25.88;16.50;;;-0.40;99.90;;;;;;5015550;28;20252;-60
2022/03/08 02:33:58;;;;;;;28.30;17.42;;;-0.40;99.90;;;;;;5015726;28;20215;-59
2022/03/08 02:36:25;;;;;;;26.95;17.50;;;-0.40;99.90;;;;;;5015429;28;20227;-59
2022/03/08 02:38:53;;;;;;;22.58;16.88;;;-0.40;99.90;;;;;;5015847;28;20226;-59
2022/03/08 02:41:20;;;;;;;26.35;16.40;;;-0.40;99.90;;;;;;5016192;28;20207;-59
2022/03/08 02:43:47;;;;;;;29.77;19.33;;;-0.40;99.90;;;;;;5015731;28;20214;-59
2022/03/08 02:46:14;;;;;;;26.98;18.13;;;-0.40;99.90;;;;;;5015461;28;20706;-59
2022/03/08 02:48:42;;;;;;;30.08;17.98;;;-0.40;99.90;;;;;;5014356;28;20250;-59
2022/03/08 02:51:09;;;;;;;24.52;18.00;;;-0.40;99.90;;;;;;5015153;28;20199;-59
2022/03/08 02:53:36;;;;;;;24.58;16.45;;;-0.40;99.90;;;;;;5014596;28;20679;-59
2022/03/08 02:56:05;;;;;;;29.55;18.42;;;-0.40;99.90;;;;;;5015317;28;20226;-59
2022/03/08 02:58:32;;;;;;;28.13;17.50;;;-0.50;99.90;;;;;;5015019;28;20596;-58
2022/03/08 03:00:59;;;;;;;24.58;18.25;;;-0.50;99.90;;;;;;5016375;28;20203;-59
2022/03/08 03:03:26;;;;;;;26.77;20.42;;;-0.50;99.90;;;;;;5015088;28;20213;-59
2022/03/08 03:05:53;;;;;;;25.58;17.33;;;-0.50;99.90;;;;;;5014765;28;20226;-59
2022/03/08 03:08:20;;;;;;;25.10;17.67;;;-0.50;99.90;;;;;;5014400;28;20226;-59
2022/03/08 03:10:47;;;;;;;27.02;18.73;;;-0.50;99.90;;;;;;5014379;28;20694;-59
2022/03/08 03:13:16;;;;;;;27.40;18.35;;;-0.50;99.90;;;;;;5014259;28;20691;-59
2022/03/08 03:15:43;;;;;;;29.35;18.45;;;-0.50;99.90;;;;;;5014950;28;20222;-59
2022/03/08 03:18:11;;;;;;;23.05;16.10;;;-0.50;99.90;;;;;;5016066;28;20591;-59
2022/03/08 03:20:38;;;;;;;28.23;16.88;;;-0.50;99.90;;;;;;5017148;28;20211;-58
2022/03/08 03:23:05;;;;;;;30.85;18.48;;;-0.50;99.90;;;;;;5015418;28;20679;-59
2022/03/08 03:25:32;;;;;;;25.70;17.05;;;-0.60;99.90;;;;;;5015101;28;20582;-58
2022/03/08 03:27:59;;;;;;;25.00;17.90;;;-0.50;99.90;;;;;;5015312;28;20238;-59
2022/03/08 03:30:28;;;;;;;29.25;19.15;;;-0.50;99.90;;;;;;5015215;28;20195;-59
2022/03/08 03:32:55;;;;;;;31.42;18.35;;;-0.60;99.90;;;;;;5015653;28;20229;-59
2022/03/08 03:35:22;;;;;;;28.45;17.42;;;-0.60;99.90;;;;;;5015188;28;20591;-59
2022/03/08 03:37:49;;;;;;;29.88;18.73;;;-0.50;99.90;;;;;;5015012;28;20227;-59
2022/03/08 03:40:17;;;;;;;24.75;17.63;;;-0.60;99.90;;;;;;5015201;28;20207;-59
2022/03/08 03:42:44;;;;;;;23.70;17.33;;;-0.60;99.90;;;;;;5014395;28;20234;-59
2022/03/08 03:45:12;;;;;;;26.35;19.60;;;-0.60;99.90;;;;;;5013824;28;20202;-59
2022/03/08 03:47:41;;;;;;;23.92;17.08;;;-0.60;99.90;;;;;;5014023;28;20612;-60
2022/03/08 03:50:10;;;;;;;27.58;18.35;;;-0.60;99.90;;;;;;5015962;28;20214;-59
2022/03/08 03:52:37;;;;;;;25.45;17.65;;;-0.70;99.90;;;;;;5016475;28;20214;-60
2022/03/08 03:55:06;;;;;;;28.73;18.90;;;-0.70;99.90;;;;;;5016707;28;20219;-60
2022/03/08 03:57:33;;;;;;;29.15;18.17;;;-0.70;99.90;;;;;;5017017;28;20203;-59
2022/03/08 04:00:00;;;;;;;25.35;18.30;;;-0.70;99.90;;;;;;5017652;28;20206;-59
2022/03/08 04:02:27;;;;;;;26.60;19.17;;;-0.70;99.90;;;;;;5015138;28;20211;-60
2022/03/08 04:04:55;;;;;;;35.47;19.85;;;-0.70;99.90;;;;;;5015057;28;20199;-60
2022/03/08 04:09:27;;;;;;;29.38;18.52;;;-0.70;99.90;;;;;;5092225;27;20557;-58
2022/03/08 04:11:54;;;;;;;28.40;18.60;;;-0.70;99.90;;;;;;5091760;28;20212;-59
2022/03/08 04:14:21;;;;;;;31.35;18.90;;;-0.70;99.90;;;;;;5091428;28;20216;-60
2022/03/08 04:16:48;;;;;;;28.55;18.02;;;-0.70;99.90;;;;;;5092123;28;20262;-59
2022/03/08 04:19:15;;;;;;;32.60;20.05;;;-0.70;99.90;;;;;;5091681;28;20216;-60
2022/03/08 04:21:42;;;;;;;28.05;18.17;;;-0.80;99.90;;;;;;5102059;22;20226;-60
2022/03/08 04:24:09;;;;;;;26.20;18.67;;;-0.70;99.90;;;;;;5058406;28;20205;-59
2022/03/08 04:26:38;;;;;;;27.17;19.73;;;-0.80;99.90;;;;;;5057803;28;20212;-59
2022/03/08 04:29:14;;;;;;;28.83;18.55;;;-0.80;99.90;;;;;;5053392;28;20247;-60
2022/03/08 04:31:41;;;;;;;31.20;20.67;;;-0.80;99.90;;;;;;5054236;28;20221;-60
2022/03/08 04:34:08;;;;;;;33.25;21.35;;;-0.80;99.90;;;;;;5052468;28;20209;-61
2022/03/08 04:36:35;;;;;;;29.50;19.98;;;-0.80;99.90;;;;;;5051130;28;20314;-60
2022/03/08 04:39:03;;;;;;;32.92;21.52;;;-0.80;99.90;;;;;;5051660;28;20201;-60
2022/03/08 04:41:30;;;;;;;30.98;21.60;;;-0.80;99.90;;;;;;5050326;28;20229;-60
2022/03/08 04:43:58;;;;;;;28.08;19.83;;;-0.80;99.90;;;;;;5050432;28;20198;-61
2022/03/08 04:46:26;;;;;;;32.13;22.20;;;-0.80;99.90;;;;;;5050359;28;20252;-60
2022/03/08 04:48:53;;;;;;;32.47;21.08;;;-0.80;99.90;;;;;;5050941;28;20222;-60
2022/03/08 04:51:20;;;;;;;27.25;21.52;;;-0.90;99.90;;;;;;5049757;28;20226;-60
2022/03/08 04:53:47;;;;;;;26.48;19.08;;;-0.90;99.90;;;;;;5049999;28;20205;-60
2022/03/08 04:56:14;;;;;;;25.10;18.80;;;-0.90;99.90;;;;;;5049869;28;20206;-60
2022/03/08 04:58:42;;;;;;;27.60;19.70;;;-0.90;99.90;;;;;;5049726;28;20292;-60
2022/03/08 05:01:10;;;;;;;28.65;19.08;;;-0.90;99.90;;;;;;5049895;28;20222;-60
2022/03/08 05:03:37;;;;;;;30.38;19.08;;;-0.90;99.90;;;;;;5050052;28;20583;-60
2022/03/08 05:06:06;;;;;;;28.63;20.52;;;-0.90;99.90;;;;;;5049861;28;20612;-60
2022/03/08 05:08:33;;;;;;;27.92;19.05;;;-0.90;99.90;;;;;;5049933;28;20222;-60
2022/03/08 05:11:02;;;;;;;29.67;19.40;;;-0.90;99.90;;;;;;5049949;28;20201;-58
2022/03/08 05:13:29;;;;;;;31.23;19.98;;;-0.90;99.90;;;;;;5049787;28;20735;-58
2022/03/08 05:15:56;;;;;;;27.55;18.98;;;-0.90;99.90;;;;;;5049527;28;20674;-61
2022/03/08 05:18:24;;;;;;;31.35;19.10;;;-0.90;99.90;;;;;;5049677;28;20202;-60
2022/03/08 05:20:51;;;;;;;26.65;19.10;;;-0.90;99.90;;;;;;5035828;28;20304;-59
2022/03/08 05:23:19;;;;;;;26.55;18.92;;;-0.90;99.90;;;;;;5036931;28;20207;-59
2022/03/08 05:25:46;;;;;;;34.03;20.95;;;-0.90;99.90;;;;;;5036538;28;20543;-60
2022/03/08 05:28:14;;;;;;;29.38;20.00;;;-1.00;99.90;;;;;;5036047;28;20276;-58
2022/03/08 05:30:41;;;;;;;28.80;19.00;;;-0.90;99.90;;;;;;5036307;28;20574;-58
2022/03/08 05:33:09;;;;;;;26.48;19.73;;;-0.90;99.90;;;;;;5036389;28;20241;-58
2022/03/08 05:35:37;;;;;;;26.23;19.60;;;-0.90;99.90;;;;;;5035970;28;20205;-59
2022/03/08 05:38:04;;;;;;;29.73;19.05;;;-0.90;99.90;;;;;;5036102;28;20202;-59
2022/03/08 05:40:32;;;;;;;28.35;19.10;;;-0.90;99.90;;;;;;5036717;28;20638;-60
2022/03/08 05:43:01;;;;;;;28.40;18.73;;;-0.90;99.90;;;;;;5037148;28;20246;-61
2022/03/08 05:45:29;;;;;;;26.98;17.90;;;-0.90;99.90;;;;;;5037318;28;20669;-59
2022/03/08 05:47:56;;;;;;;27.30;19.88;;;-0.90;99.90;;;;;;5035874;28;20246;-60
2022/03/08 05:50:23;;;;;;;28.55;18.38;;;-0.90;99.90;;;;;;5036074;28;20209;-60
2022/03/08 05:52:52;;;;;;;26.63;17.80;;;-0.90;99.90;;;;;;5035716;28;20222;-59
2022/03/08 05:55:19;;;;;;;31.00;18.90;;;-0.90;99.90;;;;;;5035818;28;20206;-60
2022/03/08 05:57:46;;;;;;;31.40;20.40;;;-0.90;99.90;;;;;;5035597;28;20199;-60
2022/03/08 06:00:14;;;;;;;25.35;18.40;;;-0.80;99.90;;;;;;5035668;28;20229;-60
2022/03/08 06:02:42;;;;;;;30.55;19.90;;;-0.80;99.90;;;;;;5035546;28;20219;-60
2022/03/08 06:05:09;;;;;;;29.50;19.63;;;-0.80;99.90;;;;;;5036246;28;20237;-59
2022/03/08 06:07:36;;;;;;;31.42;20.35;;;-0.70;99.90;;;;;;5036463;28;20670;-60
2022/03/08 06:10:08;;;;;;;27.08;17.92;;;-0.70;99.90;;;;;;5036099;28;20224;-57
2022/03/08 06:12:36;;;;;;;26.83;18.77;;;-0.70;99.90;;;;;;5035853;28;20226;-58
2022/03/08 06:15:04;;;;;;;26.23;19.02;;;-0.70;99.90;;;;;;5035970;28;20278;-58
2022/03/08 06:17:31;;;;;;;27.83;18.65;;;-0.60;99.90;;;;;;5035632;28;20290;-59
2022/03/08 06:19:58;;;;;;;24.00;17.90;;;-0.60;99.90;;;;;;5036365;28;20289;-58
2022/03/08 06:22:25;;;;;;;29.05;20.23;;;-0.60;99.90;;;;;;5036605;28;20236;-58
2022/03/08 06:24:53;;;;;;;24.95;18.25;;;-0.60;99.90;;;;;;5035431;28;20208;-59
2022/03/08 06:27:21;;;;;;;26.90;18.98;;;-0.50;99.90;;;;;;5035237;28;20209;-60
2022/03/08 06:29:51;;;;;;;29.90;20.35;;;-0.50;99.90;;;;;;5037265;28;20230;-59
2022/03/08 06:32:18;;;;;;;28.67;18.38;;;-0.50;99.90;;;;;;5046250;28;20229;-60
2022/03/08 06:34:46;;;;;;;25.42;18.45;;;-0.50;99.90;;;;;;5046964;28;20212;-57
2022/03/08 06:37:13;;;;;;;31.83;21.23;;;-0.40;99.90;;;;;;5047254;28;20241;-60
2022/03/08 06:39:41;;;;;;;29.73;20.10;;;-0.40;99.90;;;;;;5046112;28;20205;-58
2022/03/08 06:42:08;;;;;;;31.58;20.20;;;-0.30;99.90;;;;;;5045662;28;20222;-59
2022/03/08 06:44:39;;;;;;;30.02;21.40;;;-0.30;99.90;;;;;;5042106;28;20674;-59
2022/03/08 06:47:07;;;;;;;28.02;18.98;;;-0.20;99.90;;;;;;5039948;28;20183;-59
2022/03/08 06:49:34;;;;;;;31.50;19.65;;;-0.10;99.90;;;;;;5035164;28;20228;-59
2022/03/08 06:52:01;;;;;;;27.85;19.63;;;0.00;99.90;;;;;;5035258;28;20222;-59
2022/03/08 06:54:29;;;;;;;26.25;18.05;;;0.10;99.90;;;;;;5035612;28;20385;-58
2022/03/08 06:56:56;;;;;;;22.65;19.33;;;0.10;99.90;;;;;;5039068;28;20617;-60
2022/03/08 06:59:25;;;;;;;29.25;19.45;;;0.20;99.90;;;;;;5038159;28;20202;-58
2022/03/08 07:01:56;;;;;;;24.90;18.83;;;0.30;99.90;;;;;;5038799;28;20232;-60
2022/03/08 07:04:23;;;;;;;30.33;19.35;;;0.30;99.90;;;;;;5036036;28;20190;-59
2022/03/08 07:06:50;;;;;;;26.60;18.13;;;0.40;99.90;;;;;;5034957;28;20198;-60
2022/03/08 07:09:18;;;;;;;27.05;17.75;;;0.50;99.90;;;;;;5036375;28;20248;-60
2022/03/08 07:11:45;;;;;;;25.10;19.58;;;0.60;99.90;;;;;;5036403;28;20226;-61
2022/03/08 07:14:15;;;;;;;24.63;17.23;;;0.70;99.90;;;;;;5037733;28;20210;-61
2022/03/08 07:16:42;;;;;;;28.42;17.42;;;0.70;99.90;;;;;;5035743;28;20194;-60
2022/03/08 07:19:11;;;;;;;27.00;17.23;;;0.80;99.90;;;;;;5035391;28;20202;-60
2022/03/08 07:21:38;;;;;;;27.15;17.70;;;0.90;99.90;;;;;;5034895;28;20230;-61
2022/03/08 07:24:06;;;;;;;31.17;17.38;;;1.10;99.90;;;;;;5035176;28;20580;-59
2022/03/08 07:26:33;;;;;;;20.35;16.45;;;1.20;99.90;;;;;;5034245;28;20210;-58
2022/03/08 07:29:00;;;;;;;30.48;18.90;;;1.30;99.90;;;;;;5034973;28;20222;-60
2022/03/08 07:31:27;;;;;;;25.52;18.92;;;1.40;99.90;;;;;;5034265;28;20710;-60
2022/03/08 07:33:55;;;;;;;24.45;17.27;;;1.50;99.90;;;;;;5033740;28;20332;-61
2022/03/08 07:36:24;;;;;;;27.42;18.30;;;1.60;99.90;;;;;;5034183;28;20206;-61
2022/03/08 07:38:51;;;;;;;23.45;18.20;;;1.70;99.90;;;;;;5033622;28;20202;-61
2022/03/08 07:41:18;;;;;;;25.35;16.63;;;1.80;99.90;;;;;;5033416;28;20222;-61
2022/03/08 07:43:45;;;;;;;29.05;17.17;;;1.90;99.90;;;;;;5033259;28;20213;-61
2022/03/08 07:46:14;;;;;;;24.88;17.00;;;2.00;99.90;;;;;;5033314;28;20221;-62
2022/03/08 07:48:41;;;;;;;25.00;16.60;;;2.10;99.90;;;;;;5034267;28;20276;-59
2022/03/08 07:51:08;;;;;;;21.10;15.00;;;2.20;99.90;;;;;;5033782;28;20226;-61
2022/03/08 07:53:37;;;;;;;24.02;16.30;;;2.40;99.90;;;;;;5033989;28;20213;-60
2022/03/08 07:56:05;;;;;;;23.65;16.20;;;2.50;99.90;;;;;;5034119;28;20205;-61
2022/03/08 07:58:34;;;;;;;30.70;18.95;;;2.60;99.90;;;;;;5034088;28;20203;-59
2022/03/08 08:01:01;;;;;;;22.77;16.50;;;2.70;99.90;;;;;;5033659;28;20202;-60
2022/03/08 08:03:28;;;;;;;20.90;16.05;;;2.80;99.90;;;;;;5033755;28;20218;-60
2022/03/08 08:05:55;;;;;;;20.05;14.38;;;2.90;99.90;;;;;;5033651;28;20205;-60
2022/03/08 08:08:22;;;;;;;21.30;16.55;;;3.00;99.90;;;;;;5033525;28;20202;-61
2022/03/08 08:10:50;;;;;;;20.38;15.10;;;3.10;99.90;;;;;;5034222;28;20209;-61
2022/03/08 08:13:17;;;;;;;20.65;14.77;;;3.20;99.90;;;;;;5033946;28;20209;-60
2022/03/08 08:15:44;;;;;;;19.83;14.60;;;3.30;99.90;;;;;;5033613;28;20229;-61
2022/03/08 08:18:12;;;;;;;17.92;13.95;;;3.40;99.90;;;;;;5033681;28;20202;-61
2022/03/08 08:20:39;;;;;;;20.55;14.40;;;3.50;99.80;;;;;;5033370;28;20720;-62
2022/03/08 08:23:06;;;;;;;18.30;13.82;;;3.50;99.40;;;;;;5033503;28;20237;-60
2022/03/08 08:25:33;;;;;;;20.08;15.07;;;3.60;98.80;;;;;;5034039;28;20202;-60
2022/03/08 08:28:02;;;;;;;19.95;14.43;;;3.70;98.40;;;;;;5033670;28;20676;-61
2022/03/08 08:30:29;;;;;;;23.38;14.30;;;3.80;98.10;;;;;;5033681;28;20371;-61
2022/03/08 08:32:56;;;;;;;21.02;13.50;;;3.90;97.70;;;;;;5033999;28;20229;-61
2022/03/08 08:35:23;;;;;;;20.67;13.32;;;4.00;97.20;;;;;;5033773;28;20207;-60
2022/03/08 08:37:50;;;;;;;17.73;12.98;;;4.20;96.80;;;;;;5034002;28;20210;-59
2022/03/08 08:40:17;;;;;;;19.48;12.93;;;4.30;96.20;;;;;;5033931;28;20209;-61
2022/03/08 08:42:44;;;;;;;18.52;13.32;;;4.40;95.40;;;;;;5033269;28;20564;-61
2022/03/08 08:45:14;;;;;;;18.52;11.35;;;4.40;94.90;;;;;;5033313;28;20209;-61
2022/03/08 08:47:41;;;;;;;12.95;11.63;;;4.50;94.80;;;;;;5033053;28;20587;-61
2022/03/08 08:50:09;;;;;;;16.55;11.23;;;4.60;94.10;;;;;;5033490;28;20225;-61
2022/03/08 08:52:36;;;;;;;15.73;11.93;;;4.70;93.60;;;;;;5033132;28;20710;-60
2022/03/08 08:55:03;;;;;;;15.48;11.20;;;4.80;93.20;;;;;;5034872;28;20202;-62
2022/03/08 08:57:30;;;;;;;10.13;8.13;;;5.00;92.80;;;;;;5036992;28;20210;-59
2022/03/08 08:59:57;;;;;;;15.07;9.20;;;5.10;92.00;;;;;;5036835;28;20202;-62
2022/03/08 09:02:26;;;;;;;11.40;8.68;;;5.30;91.40;;;;;;5037042;28;20718;-61
2022/03/08 09:04:53;;;;;;;12.48;9.52;;;5.40;90.90;;;;;;5037116;28;20221;-61
2022/03/08 09:07:20;;;;;;;25.80;10.82;;;5.60;90.50;;;;;;5036680;28;20681;-61
2022/03/08 09:09:49;;;;;;;11.25;9.57;;;5.70;90.10;;;;;;5037694;28;20314;-63
2022/03/08 09:12:16;;;;;;;11.77;8.88;;;5.80;89.20;;;;;;5036988;28;20246;-62
2022/03/08 09:14:43;;;;;;;13.13;8.90;;;6.00;87.90;;;;;;5036580;28;20210;-60
2022/03/08 09:17:10;;;;;;;10.00;8.30;;;6.10;86.90;;;;;;5036888;28;20206;-62
2022/03/08 09:19:39;;;;;;;12.00;8.25;;;6.10;85.50;;;;;;5045857;28;20199;-60
2022/03/08 09:22:06;;;;;;;9.23;7.45;;;6.20;84.60;;;;;;5047242;28;20236;-61
2022/03/08 09:24:35;;;;;;;9.15;7.20;;;6.30;83.70;;;;;;5046336;28;20202;-60
2022/03/08 09:27:04;;;;;;;10.73;7.97;;;6.40;82.70;;;;;;5044528;28;20245;-62
2022/03/08 09:29:31;;;;;;;8.15;7.35;;;6.50;81.50;;;;;;5045808;28;20226;-60
2022/03/08 09:31:58;;;;;;;7.25;6.30;;;6.60;80.20;;;;;;5049890;28;20714;-61
2022/03/08 09:34:25;;;;;;;7.97;5.55;;;6.70;78.60;;;;;;5045675;28;20199;-60
2022/03/08 09:36:53;;;;;;;8.02;4.78;;;6.80;77.40;;;;;;5048224;28;20229;-62
2022/03/08 09:39:21;;;;;;;6.10;5.25;;;6.80;75.40;;;;;;5046577;28;20220;-62
2022/03/08 09:41:51;;;;;;;5.63;5.03;;;6.80;74.20;;;;;;5035348;28;20226;-61
2022/03/08 09:44:19;;;;;;;5.80;5.20;;;6.90;72.60;;;;;;5035724;28;20662;-61
2022/03/08 09:46:46;;;;;;;7.13;5.70;;;6.90;71.80;;;;;;5035868;28;20198;-62
2022/03/08 09:49:13;;;;;;;6.80;4.88;;;7.00;71.10;;;;;;5036010;28;20222;-61
2022/03/08 09:51:41;;;;;;;6.00;4.80;;;7.10;70.10;;;;;;5036155;28;20233;-60
2022/03/08 09:54:10;;;;;;;4.88;4.30;;;7.10;68.90;;;;;;5036232;28;20209;-61
2022/03/08 09:56:37;;;;;;;6.00;5.32;;;7.20;67.80;;;;;;5036308;28;20209;-62
2022/03/08 09:59:04;;;;;;;10.07;4.53;;;7.30;67.40;;;;;;5036177;28;20206;-62
2022/03/08 10:01:32;;;;;;;4.70;3.55;;;7.50;66.60;;;;;;5036331;28;20222;-61
2022/03/08 10:04:00;;;;;;;5.32;4.15;;;7.60;64.70;;;;;;5036554;28;20202;-62
2022/03/08 10:06:39;;;;;;;7.93;4.75;;;7.60;63.70;;;;;;5036507;28;20202;-61
2022/03/08 10:09:15;;;;;;;5.38;4.80;;;7.60;63.10;;;;;;5035756;28;20262;-60
2022/03/08 10:11:43;;;;;;;3.72;3.30;;;7.70;62.90;;;;;;5035206;28;20225;-62
2022/03/08 10:14:14;;;;;;;3.85;3.40;;;7.80;62.10;;;;;;5035515;28;20202;-62
2022/03/08 10:16:48;;;;;;;4.45;3.30;;;7.80;60.90;;;;;;5035228;28;20221;-61
2022/03/08 10:19:15;;;;;;;6.47;4.07;;;7.90;60.40;;;;;;5035431;28;20182;-62
2022/03/08 10:21:44;;;;;;;6.07;3.40;;;7.90;59.80;;;;;;5066171;22;20242;-60
2022/03/08 10:24:19;;;;;;;5.95;4.05;;;8.10;59.80;;;;;;5015153;28;20210;-60
2022/03/08 10:26:49;;;;;;;7.90;4.68;;;8.30;59.40;;;;;;5015176;28;20702;-60
2022/03/08 10:29:23;;;;;;;5.93;4.68;;;8.40;58.40;;;;;;5014644;28;20230;-60
2022/03/08 10:31:50;;;;;;;6.10;4.93;;;8.40;57.80;;;;;;5014791;28;20273;-60
2022/03/08 10:34:17;;;;;;;5.25;3.85;;;8.40;57.10;;;;;;5014761;28;20225;-60
2022/03/08 10:37:01;;;;;;;4.97;4.43;;;8.40;56.40;;;;;;5014333;28;20203;-60
2022/03/08 10:39:29;;;;;;;7.72;3.92;;;8.40;55.80;;;;;;5013023;28;20270;-60
2022/03/08 10:41:58;;;;;;;6.82;4.07;;;8.40;55.30;;;;;;5014506;28;20559;-60
2022/03/08 10:44:34;;;;;;;7.85;3.30;;;8.40;54.70;;;;;;5014967;28;20305;-61
2022/03/08 10:47:05;;;;;;;5.18;4.40;;;8.40;54.00;;;;;;5014805;28;20202;-60
2022/03/08 10:49:33;;;;;;;4.20;3.05;;;8.40;53.50;;;;;;5014480;28;20246;-60
2022/03/08 10:52:02;;;;;;;4.68;3.20;;;8.60;53.30;;;;;;5013960;28;20253;-60
2022/03/08 10:54:32;;;;;;;3.63;3.28;;;8.70;52.70;;;;;;5014309;28;20198;-60
2022/03/08 10:56:59;;;;;;;4.45;3.30;;;8.90;51.70;;;;;;5014325;28;20203;-60
2022/03/08 10:59:26;;;;;;;6.70;3.55;;;8.90;51.00;;;;;;5014249;28;20202;-60
2022/03/08 11:01:53;;;;;;;6.50;3.25;;;8.90;50.30;;;;;;5014244;28;20230;-60
2022/03/08 11:04:22;;;;;;;6.18;4.18;;;8.90;49.50;;;;;;5015098;28;20257;-60
2022/03/08 11:06:53;;;;;;;11.60;9.10;;;8.80;49.20;;;;;;5014615;28;20210;-60
2022/03/08 11:09:21;;;;;;;7.40;3.40;;;8.90;49.00;;;;;;5015065;28;20187;-61
2022/03/08 11:11:49;;;;;;;6.05;5.10;;;8.90;48.60;;;;;;5013717;28;20218;-60
2022/03/08 11:14:17;;;;;;;5.18;3.60;;;9.00;48.70;;;;;;5014088;28;20207;-60
2022/03/08 11:16:51;;;;;;;3.80;3.00;;;9.20;48.40;;;;;;5013488;28;20671;-61
2022/03/08 11:19:19;;;;;;;3.70;3.17;;;9.30;47.80;;;;;;5013861;28;20565;-61
2022/03/08 11:21:48;;;;;;;5.45;3.45;;;9.30;47.00;;;;;;5014036;28;20284;-61
2022/03/08 11:24:16;;;;;;;13.00;2.80;;;9.30;46.30;;;;;;5014037;28;20191;-61
2022/03/08 11:26:44;;;;;;;3.53;2.35;;;9.20;45.70;;;;;;5014289;28;20460;-60
2022/03/08 11:29:14;;;;;;;4.27;2.47;;;9.30;45.30;;;;;;5014179;28;20203;-61
2022/03/08 11:31:43;;;;;;;3.53;2.80;;;9.30;45.10;;;;;;5014158;28;20469;-61
2022/03/08 11:34:19;;;;;;;3.43;2.60;;;9.40;44.80;;;;;;5014287;28;20204;-61
2022/03/08 11:36:56;;;;;;;5.93;2.70;;;9.40;43.80;;;;;;5014291;28;20429;-60
2022/03/08 11:39:25;;;;;;;6.30;2.77;;;9.40;43.60;;;;;;5014495;28;20438;-61
2022/03/08 11:41:54;;;;;;;2.85;2.20;;;9.60;43.90;;;;;;5014169;28;20470;-61
2022/03/08 11:44:25;;;;;;;5.20;2.65;;;9.70;43.50;;;;;;5013735;28;20202;-60
2022/03/08 11:47:09;;;;;;;3.80;2.17;;;9.70;42.90;;;;;;5013905;28;20187;-61
2022/03/08 11:49:45;;;;;;;3.47;2.10;;;9.70;42.30;;;;;;5013361;28;20801;-60
2022/03/08 11:52:17;;;;;;;3.20;1.63;;;9.70;42.10;;;;;;5013639;28;20997;-61
2022/03/08 11:54:55;;;;;;;3.83;2.50;;;9.80;41.70;;;;;;5013478;28;20521;-61
2022/03/08 11:58:01;;;;;;;2.30;1.83;;;9.80;41.20;;;;;;5014279;28;20438;-61
2022/03/08 12:00:36;;;;;;;2.38;1.70;;;9.80;41.20;;;;;;5001990;28;20449;-61
2022/03/08 12:03:06;;;;;;;2.70;2.50;;;9.90;41.50;;;;;;5014473;28;20718;-61
2022/03/08 12:06:00;;;;;;;2.97;1.67;;;10.00;40.20;;;;;;5015077;28;20450;-61
2022/03/08 12:08:59;;;;;;;2.63;1.50;;;10.10;40.00;;;;;;5014905;28;20431;-61
2022/03/08 12:11:38;;;;;;;4.23;1.53;;;10.10;39.50;;;;;;5013237;28;20470;-62
2022/03/08 12:14:08;;;;;;;3.33;1.80;;;10.20;39.60;;;;;;5014054;28;20749;-61
2022/03/08 12:16:39;;;;;;;2.60;1.77;;;10.30;39.60;;;;;;5018061;28;20434;-60
2022/03/08 12:19:07;;;;;;;2.33;2.13;;;10.40;39.20;;;;;;5017682;28;20445;-62
2022/03/08 12:21:40;;;;;;;2.60;1.93;;;10.50;38.60;;;;;;5017618;28;20442;-61
2022/03/08 12:24:14;;;;;;;3.17;1.30;;;10.50;38.80;;;;;;5015045;28;20467;-61
2022/03/08 12:26:42;;;;;;;2.10;1.40;;;10.60;38.60;;;;;;5014630;28;20911;-61
2022/03/08 12:29:13;;;;;;;2.73;1.83;;;10.60;38.00;;;;;;5015878;28;20460;-61
2022/03/08 12:32:23;;;;;;;2.57;1.70;;;10.60;37.50;;;;;;5018896;28;20490;-61
2022/03/08 12:34:54;;;;;;;3.57;2.00;;;10.60;37.40;;;;;;5018155;28;20480;-61
2022/03/08 12:37:23;;;;;;;1.70;1.40;;;10.60;37.10;;;;;;5017632;28;20786;-62
2022/03/08 12:39:53;;;;;;;2.23;1.40;;;10.60;37.30;;;;;;5017329;28;20442;-61
2022/03/08 12:42:23;;;;;;;1.70;1.50;;;10.70;37.50;;;;;;5016743;28;20462;-62
2022/03/08 12:44:55;;;;;;;1.83;1.30;;;10.70;37.20;;;;;;5016922;28;20599;-62
2022/03/08 12:47:22;;;;;;;3.87;1.63;;;10.80;36.90;;;;;;5017408;28;20433;-61